Time;durP1;ratioP1;P1;durP2;ratioP2;P2;SDS_P1;SDS_P2;PMS_P1;PMS_P2;Temp;Humidity;BMP_temperature;BMP_pressure;BME280_temperature;BME280_humidity;BME280_pressure;Samples;Min_cycle;Max_cycle;Signal;HPM_P1;HPM_P2
2023/06/18 00:02:07;;;;;;;16.63;6.90;;;20.50;74.70;;;;;;5040372;28;20041;-81
2023/06/18 00:04:33;;;;;;;8.52;6.22;;;20.50;75.00;;;;;;5032939;28;20079;-81
2023/06/18 00:06:59;;;;;;;10.45;6.60;;;20.50;75.40;;;;;;5032679;28;20025;-82
2023/06/18 00:09:24;;;;;;;9.20;6.30;;;20.40;76.00;;;;;;5031568;28;20040;-81
2023/06/18 00:11:50;;;;;;;11.90;7.03;;;20.50;75.80;;;;;;5027531;28;20032;-81
2023/06/18 00:14:17;;;;;;;14.45;6.57;;;20.50;76.00;;;;;;5030683;28;20040;-81
2023/06/18 00:16:43;;;;;;;11.13;7.57;;;20.50;76.20;;;;;;5032469;28;20017;-81
2023/06/18 00:19:08;;;;;;;9.63;6.93;;;20.40;76.70;;;;;;5031679;28;20503;-80
2023/06/18 00:21:34;;;;;;;8.25;6.53;;;20.20;76.80;;;;;;5030285;28;20476;-81
2023/06/18 00:24:02;;;;;;;14.73;6.72;;;20.20;77.10;;;;;;5028845;28;20087;-79
2023/06/18 00:26:28;;;;;;;11.45;7.00;;;20.10;77.20;;;;;;5032858;28;20025;-80
2023/06/18 00:28:54;;;;;;;10.85;6.97;;;20.10;78.40;;;;;;5034689;28;20025;-80
2023/06/18 00:31:20;;;;;;;12.57;7.13;;;20.20;78.70;;;;;;5035771;28;20032;-80
2023/06/18 00:33:45;;;;;;;10.63;6.93;;;20.20;79.10;;;;;;5036539;28;20032;-81
2023/06/18 00:36:12;;;;;;;13.40;6.85;;;20.20;79.00;;;;;;5032265;28;20281;-80
2023/06/18 00:38:46;;;;;;;12.23;7.22;;;20.30;79.00;;;;;;5031117;28;20033;-80
2023/06/18 00:41:13;;;;;;;12.15;7.82;;;20.30;78.80;;;;;;5031380;28;20044;-81
2023/06/18 00:43:39;;;;;;;14.02;8.13;;;20.40;79.00;;;;;;5030948;28;20762;-80
2023/06/18 00:46:05;;;;;;;10.23;6.97;;;20.40;79.00;;;;;;5032098;28;20076;-81
2023/06/18 00:48:32;;;;;;;12.50;7.90;;;20.40;78.40;;;;;;5027577;28;20017;-79
2023/06/18 00:50:59;;;;;;;13.50;8.07;;;20.40;78.50;;;;;;5029977;28;20448;-80
2023/06/18 00:53:25;;;;;;;13.48;7.38;;;20.50;78.40;;;;;;5030675;28;20458;-80
2023/06/18 00:55:51;;;;;;;11.30;8.50;;;20.50;78.40;;;;;;5011544;28;20028;-80
2023/06/18 00:58:23;;;;;;;12.05;7.43;;;20.50;78.60;;;;;;5034474;28;20384;-80
2023/06/18 01:00:52;;;;;;;11.85;7.40;;;20.60;78.70;;;;;;5031083;28;20051;-80
2023/06/18 01:03:20;;;;;;;11.27;7.65;;;20.60;78.50;;;;;;5030088;28;20037;-81
2023/06/18 01:06:04;;;;;;;12.60;8.30;;;20.70;78.50;;;;;;5036435;28;20104;-80
2023/06/18 01:08:33;;;;;;;11.95;8.63;;;20.70;78.30;;;;;;5031820;28;20033;-80
2023/06/18 01:11:06;;;;;;;10.65;7.53;;;20.70;78.70;;;;;;5032005;28;20025;-81
2023/06/18 01:13:32;;;;;;;;;;;20.70;78.40;;;;;;5034140;28;20540;-79
2023/06/18 01:16:05;;;;;;;17.02;8.40;;;20.80;78.10;;;;;;5047384;28;19905;-81
2023/06/18 01:18:45;;;;;;;14.43;7.50;;;20.90;78.30;;;;;;5028901;28;20018;-80
2023/06/18 01:21:12;;;;;;;11.45;8.07;;;20.90;78.30;;;;;;5032052;28;20092;-80
2023/06/18 01:24:04;;;;;;;8.95;7.53;;;20.90;78.30;;;;;;5028912;28;20033;-80
2023/06/18 01:26:31;;;;;;;10.82;7.85;;;21.00;78.20;;;;;;5021573;28;20875;-80
2023/06/18 01:29:00;;;;;;;12.43;7.43;;;21.00;78.00;;;;;;5028980;28;20026;-79
2023/06/18 01:31:34;;;;;;;12.35;7.60;;;21.10;77.90;;;;;;5033029;28;20029;-80
2023/06/18 01:34:01;;;;;;;9.95;7.65;;;21.10;77.80;;;;;;5025645;28;20025;-82
2023/06/18 01:36:30;;;;;;;8.65;7.43;;;21.10;77.70;;;;;;5033904;28;20453;-80
2023/06/18 01:39:07;;;;;;;17.23;8.30;;;21.20;78.50;;;;;;5016159;28;20086;-80
2023/06/18 01:41:36;;;;;;;12.52;8.25;;;21.20;77.40;;;;;;5035254;28;20393;-80
2023/06/18 01:44:12;;;;;;;14.07;7.75;;;21.30;77.50;;;;;;5028409;28;20025;-81
2023/06/18 01:46:40;;;;;;;10.00;7.63;;;21.30;77.50;;;;;;5034686;28;20094;-79
2023/06/18 01:49:07;;;;;;;12.98;8.45;;;21.30;77.30;;;;;;5025877;28;20025;-79
2023/06/18 01:51:36;;;;;;;10.63;7.72;;;21.30;77.40;;;;;;5034443;28;20032;-79
2023/06/18 01:54:03;;;;;;;11.07;7.57;;;21.30;77.30;;;;;;5026517;28;20388;-79
2023/06/18 01:56:32;;;;;;;14.07;8.02;;;21.30;77.40;;;;;;5024232;28;20032;-79
2023/06/18 01:59:00;;;;;;;10.13;7.22;;;21.30;77.50;;;;;;5028101;28;20033;-79
2023/06/18 02:01:30;;;;;;;13.32;8.98;;;21.30;77.50;;;;;;5028580;28;20124;-79
2023/06/18 02:03:56;;;;;;;12.57;7.80;;;21.20;77.50;;;;;;5026384;28;20030;-80
2023/06/18 02:06:23;;;;;;;13.13;6.90;;;21.30;77.50;;;;;;5026630;28;20017;-80
2023/06/18 02:08:49;;;;;;;10.65;7.10;;;21.30;77.30;;;;;;5025407;28;20029;-79
2023/06/18 02:11:15;;;;;;;9.90;7.50;;;21.30;77.10;;;;;;5021875;28;20028;-81
2023/06/18 02:13:40;;;;;;;12.50;7.18;;;21.30;78.30;;;;;;5022954;28;20034;-80
2023/06/18 02:16:06;;;;;;;13.43;8.15;;;21.30;77.60;;;;;;5030403;28;20044;-81
2023/06/18 02:18:32;;;;;;;11.85;7.53;;;21.20;77.60;;;;;;5030379;28;20044;-79
2023/06/18 02:20:58;;;;;;;37.30;18.17;;;21.30;77.20;;;;;;5026977;28;20052;-80
2023/06/18 02:23:24;;;;;;;11.27;8.18;;;21.20;77.20;;;;;;5026883;28;20030;-81
2023/06/18 02:25:50;;;;;;;10.32;7.55;;;21.20;77.80;;;;;;5024728;28;20038;-81
2023/06/18 02:28:16;;;;;;;13.48;8.05;;;21.20;78.00;;;;;;5040070;28;20076;-79
2023/06/18 02:30:41;;;;;;;10.23;7.32;;;21.10;77.40;;;;;;5030130;28;20099;-79
2023/06/18 02:33:07;;;;;;;12.70;7.88;;;21.10;78.10;;;;;;5030063;28;20043;-80
2023/06/18 02:35:33;;;;;;;13.25;8.00;;;21.10;78.30;;;;;;5016473;28;20026;-80
2023/06/18 02:37:58;;;;;;;12.93;8.15;;;21.00;79.00;;;;;;5026518;28;20478;-80
2023/06/18 02:40:24;;;;;;;12.73;8.13;;;20.90;78.80;;;;;;5031888;28;20124;-80
2023/06/18 02:42:52;;;;;;;14.02;8.20;;;20.80;79.60;;;;;;5032221;28;20127;-80
2023/06/18 02:45:22;;;;;;;11.93;7.72;;;20.70;79.70;;;;;;5026875;28;20592;-80
2023/06/18 02:47:48;;;;;;;12.52;7.60;;;20.70;80.40;;;;;;5040724;28;20077;-79
2023/06/18 02:50:15;;;;;;;9.68;7.32;;;20.70;80.50;;;;;;5054202;28;20013;-80
2023/06/18 02:52:42;;;;;;;11.07;7.95;;;20.60;80.50;;;;;;5060039;28;20042;-81
2023/06/18 02:55:09;;;;;;;9.40;7.40;;;20.50;80.90;;;;;;5061440;28;20051;-80
2023/06/18 02:57:36;;;;;;;15.85;7.45;;;20.40;81.40;;;;;;5033373;28;20035;-80
2023/06/18 03:00:09;;;;;;;10.38;7.72;;;20.30;81.90;;;;;;5020616;28;20076;-79
2023/06/18 03:02:38;;;;;;;12.32;7.35;;;20.20;82.10;;;;;;5028087;28;20113;-80
2023/06/18 03:05:04;;;;;;;13.68;7.50;;;20.10;82.20;;;;;;5015000;28;20490;-79
2023/06/18 03:07:30;;;;;;;13.13;8.15;;;20.00;83.10;;;;;;5035815;28;20037;-80
2023/06/18 03:09:55;;;;;;;15.27;7.80;;;20.00;83.30;;;;;;5033823;28;20017;-79
2023/06/18 03:12:21;;;;;;;10.13;7.80;;;20.00;83.60;;;;;;5030149;28;20370;-80
2023/06/18 03:14:47;;;;;;;11.45;7.57;;;19.90;84.00;;;;;;5031527;28;20026;-80
2023/06/18 03:17:13;;;;;;;10.95;7.65;;;19.90;83.60;;;;;;5028690;28;20119;-79
2023/06/18 03:19:38;;;;;;;10.70;7.95;;;19.90;84.40;;;;;;5029666;28;20030;-80
2023/06/18 03:22:05;;;;;;;11.75;7.68;;;19.90;84.50;;;;;;5027836;28;20063;-79
2023/06/18 03:24:32;;;;;;;11.93;8.38;;;19.90;84.20;;;;;;5052286;28;20020;-80
2023/06/18 03:26:58;;;;;;;11.07;8.25;;;19.90;84.10;;;;;;5035193;28;20044;-80
2023/06/18 03:29:30;;;;;;;12.80;8.20;;;19.80;84.30;;;;;;5029075;28;20052;-80
2023/06/18 03:31:58;;;;;;;13.88;8.27;;;19.80;83.90;;;;;;5029538;28;20036;-80
2023/06/18 03:34:24;;;;;;;20.00;9.32;;;19.80;84.50;;;;;;5028749;28;20477;-80
2023/06/18 03:36:50;;;;;;;17.00;7.97;;;19.80;85.20;;;;;;5033185;28;20078;-80
2023/06/18 03:39:16;;;;;;;9.80;7.70;;;19.70;84.90;;;;;;5031115;28;20027;-80
2023/06/18 03:41:42;;;;;;;15.63;8.02;;;19.70;85.30;;;;;;5029005;28;20053;-79
2023/06/18 03:44:08;;;;;;;12.80;8.88;;;19.80;85.90;;;;;;5029316;28;20080;-82
2023/06/18 03:46:34;;;;;;;14.25;8.93;;;19.70;85.90;;;;;;5028562;28;20787;-80
2023/06/18 03:49:00;;;;;;;11.98;8.35;;;19.80;85.80;;;;;;5027723;28;20026;-80
2023/06/18 03:51:26;;;;;;;12.73;8.63;;;19.80;85.60;;;;;;5027261;28;20619;-79
2023/06/18 03:53:52;;;;;;;15.98;8.43;;;19.80;85.70;;;;;;5029492;28;20051;-79
2023/06/18 03:56:19;;;;;;;14.50;9.55;;;19.80;85.50;;;;;;5027507;28;20037;-81
2023/06/18 03:58:46;;;;;;;12.90;9.60;;;19.80;85.60;;;;;;5029986;28;20025;-81
2023/06/18 04:01:11;;;;;;;15.52;9.80;;;19.80;85.80;;;;;;5032860;28;20057;-79
2023/06/18 04:03:37;;;;;;;12.82;9.02;;;19.80;85.90;;;;;;5030341;28;20447;-79
2023/06/18 04:06:03;;;;;;;21.58;10.35;;;19.80;86.10;;;;;;5033719;28;20021;-80
2023/06/18 04:08:30;;;;;;;15.88;9.93;;;19.90;86.30;;;;;;5033408;28;20025;-79
2023/06/18 04:10:58;;;;;;;12.80;9.13;;;19.90;86.20;;;;;;5030094;28;20014;-81
2023/06/18 04:13:28;;;;;;;14.30;9.35;;;19.90;86.30;;;;;;5027682;28;20032;-79
2023/06/18 04:15:53;;;;;;;14.98;9.23;;;20.00;85.80;;;;;;5029867;28;20460;-81
2023/06/18 04:18:20;;;;;;;19.23;10.43;;;20.10;86.00;;;;;;5032254;28;20025;-79
2023/06/18 04:20:46;;;;;;;14.50;10.18;;;20.20;85.70;;;;;;5029264;28;20120;-80
2023/06/18 04:23:12;;;;;;;17.75;9.88;;;20.20;85.40;;;;;;5034958;28;20113;-80
2023/06/18 04:25:38;;;;;;;16.27;10.27;;;20.30;85.20;;;;;;5035041;28;20457;-80
2023/06/18 04:28:04;;;;;;;16.25;9.90;;;20.20;85.10;;;;;;5028992;28;20090;-81
2023/06/18 04:30:30;;;;;;;14.70;9.68;;;20.30;85.80;;;;;;5037597;28;20026;-82
2023/06/18 04:32:56;;;;;;;13.18;10.02;;;20.30;85.90;;;;;;5029070;28;20029;-80
2023/06/18 04:35:22;;;;;;;15.00;9.52;;;20.40;85.90;;;;;;5027785;28;20175;-80
2023/06/18 04:37:47;;;;;;;17.20;10.02;;;20.40;86.10;;;;;;5029643;28;22020;-79
2023/06/18 04:40:13;;;;;;;14.32;10.70;;;20.40;86.10;;;;;;5033012;28;20025;-79
2023/06/18 04:42:38;;;;;;;14.55;10.25;;;20.40;85.50;;;;;;5030180;28;20477;-80
2023/06/18 04:45:05;;;;;;;16.90;10.48;;;20.50;85.60;;;;;;5030990;28;20078;-80
2023/06/18 04:47:32;;;;;;;15.75;11.43;;;20.50;85.60;;;;;;5031710;28;20382;-80
2023/06/18 04:49:57;;;;;;;15.73;11.45;;;20.40;85.70;;;;;;5033313;28;20404;-80
2023/06/18 04:52:23;;;;;;;22.20;10.85;;;20.40;86.00;;;;;;5030713;28;20029;-81
2023/06/18 04:54:52;;;;;;;17.55;10.68;;;20.40;86.00;;;;;;5034357;28;20028;-81
2023/06/18 04:57:18;;;;;;;23.05;11.48;;;20.40;86.20;;;;;;5029730;28;20029;-81
2023/06/18 04:59:43;;;;;;;17.63;11.45;;;20.40;86.20;;;;;;5014879;28;20072;-81
2023/06/18 05:02:09;;;;;;;14.32;11.02;;;20.40;86.10;;;;;;5027780;28;20040;-81
2023/06/18 05:04:35;;;;;;;17.42;12.00;;;20.50;86.20;;;;;;5027090;28;20827;-80
2023/06/18 05:07:00;;;;;;;14.90;11.35;;;20.60;86.20;;;;;;5034490;28;20025;-81
2023/06/18 05:09:29;;;;;;;17.42;12.00;;;20.70;85.90;;;;;;5030493;28;20026;-79
2023/06/18 05:11:55;;;;;;;15.23;11.23;;;20.80;85.70;;;;;;5029185;28;20014;-81
2023/06/18 05:14:20;;;;;;;18.90;11.40;;;20.90;85.70;;;;;;5029553;28;20079;-78
2023/06/18 05:16:46;;;;;;;21.88;11.55;;;21.00;85.80;;;;;;5027869;28;20029;-80
2023/06/18 05:19:14;;;;;;;17.90;11.15;;;21.00;85.70;;;;;;5032260;28;20033;-79
2023/06/18 05:21:39;;;;;;;15.38;11.15;;;21.10;85.60;;;;;;5019413;28;20144;-79
2023/06/18 05:24:07;;;;;;;19.33;12.23;;;21.20;85.40;;;;;;5029901;28;20408;-79
2023/06/18 05:26:35;;;;;;;21.70;12.57;;;21.20;85.30;;;;;;5031665;28;20025;-80
2023/06/18 05:29:01;;;;;;;28.00;12.57;;;21.30;85.40;;;;;;5027650;28;20323;-79
2023/06/18 05:31:28;;;;;;;20.20;12.27;;;21.30;85.00;;;;;;5042713;28;20036;-79
2023/06/18 05:33:54;;;;;;;19.88;12.95;;;21.30;85.00;;;;;;5036850;28;20021;-81
2023/06/18 05:36:22;;;;;;;19.05;12.27;;;21.30;84.80;;;;;;5030763;28;20021;-79
2023/06/18 05:38:52;;;;;;;17.45;12.80;;;21.40;84.80;;;;;;5027893;28;20025;-79
2023/06/18 05:41:20;;;;;;;20.77;12.95;;;21.40;84.90;;;;;;5030064;28;20072;-80
2023/06/18 05:43:45;;;;;;;21.83;13.40;;;21.50;85.20;;;;;;5028013;28;20030;-80
2023/06/18 05:46:11;;;;;;;19.13;12.73;;;21.50;84.70;;;;;;5029952;28;20087;-79
2023/06/18 05:48:39;;;;;;;16.38;12.23;;;21.70;84.50;;;;;;5031734;28;20027;-79
2023/06/18 05:51:04;;;;;;;21.58;13.15;;;21.70;84.30;;;;;;5028680;28;20044;-79
2023/06/18 05:53:30;;;;;;;18.75;13.45;;;21.80;83.90;;;;;;5032146;28;21077;-80
2023/06/18 05:55:55;;;;;;;21.98;13.65;;;21.90;83.80;;;;;;5030784;28;20091;-79
2023/06/18 05:58:21;;;;;;;19.25;13.25;;;22.00;83.70;;;;;;5031446;28;20032;-80
2023/06/18 06:00:47;;;;;;;18.45;13.15;;;22.10;83.60;;;;;;5029189;28;20538;-79
2023/06/18 06:03:12;;;;;;;17.25;12.80;;;22.20;83.10;;;;;;5029107;28;20028;-79
2023/06/18 06:05:38;;;;;;;16.10;12.63;;;22.30;83.00;;;;;;5030752;28;20132;-80
2023/06/18 06:08:04;;;;;;;16.75;13.65;;;22.30;82.20;;;;;;5033116;28;20156;-80
2023/06/18 06:10:30;;;;;;;21.90;13.82;;;22.30;82.30;;;;;;5031242;28;20460;-80
2023/06/18 06:12:56;;;;;;;19.95;13.50;;;22.40;82.20;;;;;;5017744;28;20029;-81
2023/06/18 06:15:21;;;;;;;19.77;13.15;;;22.40;81.90;;;;;;5037334;28;20025;-81
2023/06/18 06:17:47;;;;;;;18.83;13.35;;;22.50;81.90;;;;;;5040716;28;20060;-79
2023/06/18 06:20:16;;;;;;;22.23;13.80;;;22.60;81.70;;;;;;5029818;28;20036;-81
2023/06/18 06:22:43;;;;;;;19.63;13.65;;;22.60;81.40;;;;;;5032325;28;20044;-79
2023/06/18 06:25:09;;;;;;;26.90;14.80;;;22.70;81.00;;;;;;5032851;28;20037;-80
2023/06/18 06:27:38;;;;;;;21.05;13.50;;;22.80;80.70;;;;;;5018872;28;20017;-79
2023/06/18 06:30:08;;;;;;;22.02;14.38;;;23.00;81.00;;;;;;5030508;28;20044;-80
2023/06/18 06:32:35;;;;;;;27.92;15.07;;;23.10;79.30;;;;;;5028951;28;20014;-81
2023/06/18 06:35:02;;;;;;;25.85;14.43;;;23.20;79.50;;;;;;5035723;28;20021;-80
2023/06/18 06:37:29;;;;;;;25.80;13.73;;;23.40;77.70;;;;;;5029190;28;20076;-80
2023/06/18 06:39:55;;;;;;;26.42;13.20;;;23.50;76.90;;;;;;5034038;28;20044;-81
2023/06/18 06:42:21;;;;;;;22.05;13.90;;;23.70;76.30;;;;;;5031089;28;20041;-79
2023/06/18 06:44:46;;;;;;;25.75;14.05;;;23.90;74.80;;;;;;5027902;28;20025;-80
2023/06/18 06:47:15;;;;;;;19.80;12.65;;;24.00;73.50;;;;;;5032971;28;20470;-82
2023/06/18 06:49:41;;;;;;;24.38;13.57;;;24.20;72.30;;;;;;5029413;28;20026;-81
2023/06/18 06:52:06;;;;;;;21.63;12.80;;;24.30;72.10;;;;;;5030337;28;20550;-81
2023/06/18 06:54:32;;;;;;;23.73;12.23;;;24.40;71.00;;;;;;5030767;28;20035;-82
2023/06/18 06:56:57;;;;;;;19.25;12.50;;;24.50;70.30;;;;;;5028406;28;20040;-84
2023/06/18 06:59:23;;;;;;;22.17;13.50;;;24.70;70.00;;;;;;5033832;28;20033;-82
2023/06/18 07:01:49;;;;;;;19.65;12.35;;;24.80;69.20;;;;;;5026926;28;20033;-81
2023/06/18 07:04:15;;;;;;;22.77;13.18;;;24.90;68.70;;;;;;5026099;28;20029;-81
2023/06/18 07:06:43;;;;;;;22.27;12.82;;;24.90;67.40;;;;;;5032777;28;20022;-81
2023/06/18 07:09:08;;;;;;;21.02;12.88;;;25.20;68.10;;;;;;5016835;28;20021;-81
2023/06/18 07:11:37;;;;;;;27.65;12.60;;;25.30;67.00;;;;;;5029315;28;20024;-82
2023/06/18 07:14:03;;;;;;;25.88;13.43;;;25.50;66.40;;;;;;5025414;28;20050;-79
2023/06/18 07:16:29;;;;;;;27.25;13.68;;;25.70;66.10;;;;;;5026751;28;20068;-80
2023/06/18 07:18:54;;;;;;;32.08;13.50;;;25.80;66.40;;;;;;5028959;28;20743;-79
2023/06/18 07:21:20;;;;;;;19.33;12.90;;;25.90;66.20;;;;;;5030684;28;20044;-79
2023/06/18 07:23:46;;;;;;;25.77;13.93;;;26.10;65.90;;;;;;5030122;28;20029;-79
2023/06/18 07:26:11;;;;;;;25.35;12.75;;;26.30;65.40;;;;;;5033337;28;20460;-81
2023/06/18 07:28:37;;;;;;;27.90;13.60;;;26.50;65.10;;;;;;5033755;28;20977;-81
2023/06/18 07:31:03;;;;;;;19.40;12.80;;;26.50;62.70;;;;;;5030196;28;20025;-82
2023/06/18 07:33:28;;;;;;;22.98;13.15;;;26.50;63.70;;;;;;5033182;28;20449;-82
2023/06/18 07:35:54;;;;;;;27.13;13.75;;;26.70;62.20;;;;;;5045417;28;20026;-82
2023/06/18 07:38:22;;;;;;;21.67;12.65;;;26.80;62.20;;;;;;5043476;28;20091;-81
2023/06/18 07:40:48;;;;;;;21.25;12.75;;;27.00;62.00;;;;;;5034254;28;20349;-82
2023/06/18 07:43:13;;;;;;;25.70;12.25;;;27.20;61.80;;;;;;5030705;28;20021;-82
2023/06/18 07:45:39;;;;;;;22.38;12.63;;;27.20;62.30;;;;;;5035859;28;20055;-83
2023/06/18 07:48:05;;;;;;;24.23;12.68;;;27.30;61.40;;;;;;5039803;28;20025;-83
2023/06/18 07:50:35;;;;;;;24.75;12.77;;;27.40;60.90;;;;;;5037049;28;20024;-83
2023/06/18 07:53:05;;;;;;;25.15;11.25;;;27.40;59.30;;;;;;5036726;28;20389;-82
2023/06/18 07:55:33;;;;;;;20.75;11.85;;;27.60;59.70;;;;;;5030692;28;20441;-82
2023/06/18 07:57:59;;;;;;;25.92;11.52;;;27.80;58.60;;;;;;5031350;28;20040;-81
2023/06/18 08:00:24;;;;;;;20.05;11.13;;;27.90;58.60;;;;;;5029102;28;20055;-82
2023/06/18 08:02:50;;;;;;;20.08;10.30;;;28.10;58.60;;;;;;5033261;28;20034;-82
2023/06/18 08:05:16;;;;;;;18.35;11.27;;;28.30;57.90;;;;;;5030230;28;20057;-84
2023/06/18 08:07:41;;;;;;;27.27;11.05;;;28.50;57.20;;;;;;5032152;28;20013;-82
2023/06/18 08:10:09;;;;;;;24.15;10.82;;;28.70;56.80;;;;;;5036911;28;20041;-81
2023/06/18 08:12:35;;;;;;;19.45;10.63;;;28.80;56.50;;;;;;5025696;28;20025;-83
2023/06/18 08:15:01;;;;;;;17.20;10.60;;;28.80;56.60;;;;;;5031957;28;20029;-83
2023/06/18 08:17:26;;;;;;;18.25;10.77;;;29.10;55.70;;;;;;5035441;28;20028;-82
2023/06/18 08:19:52;;;;;;;17.48;10.13;;;29.20;55.00;;;;;;5033981;28;20060;-81
2023/06/18 08:22:18;;;;;;;14.55;9.55;;;29.50;54.60;;;;;;5028226;28;20041;-82
2023/06/18 08:24:44;;;;;;;20.80;9.48;;;29.70;54.20;;;;;;5036973;28;20036;-81
2023/06/18 08:27:12;;;;;;;22.33;9.82;;;30.10;53.50;;;;;;5034027;28;20083;-82
2023/06/18 08:29:38;;;;;;;17.20;9.57;;;30.30;52.40;;;;;;5035293;28;20029;-82
2023/06/18 08:32:06;;;;;;;17.55;10.13;;;30.40;52.50;;;;;;5032972;28;20033;-82
2023/06/18 08:34:32;;;;;;;14.30;8.57;;;30.60;52.60;;;;;;5031228;28;20571;-82
2023/06/18 08:36:59;;;;;;;16.17;9.50;;;30.70;51.60;;;;;;5028728;28;20867;-83
2023/06/18 08:39:26;;;;;;;19.80;9.10;;;30.70;51.30;;;;;;5041223;28;20118;-84
2023/06/18 08:42:01;;;;;;;12.43;9.18;;;30.70;50.80;;;;;;5030933;28;20565;-80
2023/06/18 08:44:28;;;;;;;19.20;8.70;;;30.70;50.50;;;;;;5027412;28;20040;-81
2023/06/18 08:47:00;;;;;;;22.65;8.90;;;30.80;50.80;;;;;;5029884;28;20020;-82
2023/06/18 08:49:32;;;;;;;16.20;8.60;;;30.90;50.30;;;;;;5031454;28;20095;-82
2023/06/18 08:52:00;;;;;;;;;;;30.90;48.60;;;;;;5033569;28;20029;-82
2023/06/18 08:54:33;;;;;;;17.08;8.88;;;30.50;46.90;;;;;;5026548;28;19913;-82
2023/06/18 08:57:19;;;;;;;13.95;9.30;;;30.30;49.10;;;;;;5023728;28;20018;-82
2023/06/18 08:59:47;;;;;;;17.05;9.23;;;30.10;49.40;;;;;;5012130;28;20037;-84
2023/06/18 09:02:13;;;;;;;24.10;10.02;;;29.90;49.70;;;;;;5027080;28;20132;-82
2023/06/18 09:04:39;;;;;;;16.00;9.02;;;29.60;50.10;;;;;;5022060;28;20512;-81
2023/06/18 09:07:06;;;;;;;10.40;7.78;;;29.40;50.30;;;;;;5021674;28;20486;-81
2023/06/18 09:09:32;;;;;;;10.88;7.82;;;29.20;50.60;;;;;;5025083;28;20029;-82
2023/06/18 09:11:57;;;;;;;13.35;8.63;;;28.90;50.10;;;;;;5029796;28;20037;-81
2023/06/18 09:14:24;;;;;;;16.13;8.73;;;28.90;50.70;;;;;;5026504;28;20017;-82
2023/06/18 09:16:51;;;;;;;19.83;9.38;;;29.10;50.90;;;;;;5022361;28;20041;-82
2023/06/18 09:19:18;;;;;;;16.58;10.02;;;29.20;51.10;;;;;;5020496;28;20048;-82
2023/06/18 09:21:46;;;;;;;18.23;9.80;;;29.30;49.90;;;;;;5024324;28;20079;-82
2023/06/18 09:24:16;;;;;;;13.73;8.95;;;29.40;50.30;;;;;;5026963;28;20017;-81
2023/06/18 09:26:42;;;;;;;12.63;8.48;;;29.40;50.10;;;;;;5027355;28;21029;-82
2023/06/18 09:29:10;;;;;;;17.77;9.85;;;29.50;50.30;;;;;;5030682;28;20044;-80
2023/06/18 09:31:46;;;;;;;18.67;9.57;;;29.50;50.30;;;;;;5026521;28;20075;-81
2023/06/18 09:34:17;;;;;;;20.13;8.98;;;30.00;50.40;;;;;;5032223;28;20052;-80
2023/06/18 09:36:47;;;;;;;15.25;8.98;;;30.60;49.30;;;;;;5037979;28;20018;-82
2023/06/18 09:39:19;;;;;;;12.05;8.15;;;30.90;49.20;;;;;;5045495;28;20029;-82
2023/06/18 09:41:51;;;;;;;14.82;8.68;;;31.20;48.80;;;;;;5028425;28;20400;-83
2023/06/18 09:44:20;;;;;;;14.07;8.53;;;31.20;47.40;;;;;;5029083;28;20568;-81
2023/06/18 09:46:59;;;;;;;13.10;7.82;;;31.40;47.90;;;;;;5030599;28;20028;-81
2023/06/18 09:49:26;;;;;;;13.73;8.38;;;31.80;47.30;;;;;;5030050;28;20037;-81
2023/06/18 09:51:53;;;;;;;9.35;7.45;;;31.90;47.10;;;;;;5021696;28;20041;-80
2023/06/18 09:54:20;;;;;;;13.70;8.13;;;31.80;48.10;;;;;;5032423;28;20103;-81
2023/06/18 09:56:57;;;;;;;13.35;7.82;;;31.70;47.80;;;;;;5031593;28;20017;-80
2023/06/18 09:59:24;;;;;;;10.13;7.65;;;31.70;47.40;;;;;;5029406;28;20742;-81
2023/06/18 10:01:53;;;;;;;11.13;8.20;;;31.50;47.10;;;;;;5027841;28;20038;-82
2023/06/18 10:04:19;;;;;;;9.73;7.40;;;31.30;47.80;;;;;;5028314;28;20028;-81
2023/06/18 10:06:53;;;;;;;11.70;7.63;;;31.40;48.10;;;;;;5033256;28;20464;-82
2023/06/18 10:09:22;;;;;;;11.98;7.55;;;31.30;48.00;;;;;;5031466;28;20064;-82
2023/06/18 10:11:53;;;;;;;12.98;8.18;;;31.10;48.30;;;;;;5029936;28;20052;-81
2023/06/18 10:14:25;;;;;;;13.02;7.60;;;30.90;48.70;;;;;;5027389;28;20091;-81
2023/06/18 10:16:57;;;;;;;;;;;30.60;49.90;;;;;;5030713;28;20025;-81
2023/06/18 10:19:38;;;;;;;11.23;7.85;;;30.50;49.20;;;;;;5032349;28;20345;-81
2023/06/18 10:22:10;;;;;;;8.57;7.35;;;30.50;48.90;;;;;;5010086;28;20142;-80
2023/06/18 10:24:52;;;;;;;11.70;8.13;;;30.50;49.00;;;;;;5031750;28;20021;-82
2023/06/18 10:27:18;;;;;;;8.75;7.13;;;30.60;49.00;;;;;;5029867;28;20036;-82
2023/06/18 10:29:43;;;;;;;8.50;7.20;;;30.40;48.80;;;;;;5027099;28;20048;-81
2023/06/18 10:32:10;;;;;;;10.05;7.05;;;30.80;48.60;;;;;;5029700;28;20029;-83
2023/06/18 10:34:39;;;;;;;16.08;7.15;;;31.00;47.70;;;;;;5023934;28;20048;-81
2023/06/18 10:37:06;;;;;;;8.93;7.38;;;31.10;46.90;;;;;;5022272;28;20030;-81
2023/06/18 10:39:34;;;;;;;8.35;7.38;;;30.90;47.30;;;;;;5031033;28;20041;-83
2023/06/18 10:42:16;;;;;;;15.35;7.95;;;31.00;47.60;;;;;;5027396;28;20042;-81
2023/06/18 10:44:47;;;;;;;8.52;7.55;;;30.80;47.60;;;;;;5031076;28;20068;-81
2023/06/18 10:47:20;;;;;;;9.02;7.65;;;30.50;47.50;;;;;;5028033;28;20465;-79
2023/06/18 10:50:07;;;;;;;10.25;7.55;;;30.40;47.70;;;;;;5029848;28;20018;-81
2023/06/18 10:52:34;;;;;;;9.95;7.28;;;30.40;47.70;;;;;;5025144;28;20021;-81
2023/06/18 10:55:09;;;;;;;8.95;7.25;;;30.30;47.70;;;;;;5026048;28;20442;-81
2023/06/18 10:57:37;;;;;;;10.55;7.25;;;30.50;47.60;;;;;;5005898;28;20541;-81
2023/06/18 11:00:29;;;;;;;7.55;6.78;;;30.50;47.60;;;;;;5000224;28;20061;-81
2023/06/18 11:02:59;;;;;;;9.07;6.88;;;30.30;47.80;;;;;;5009727;28;20044;-81
2023/06/18 11:05:39;;;;;;;7.80;7.10;;;30.30;48.00;;;;;;5009014;28;20108;-81
2023/06/18 11:08:13;;;;;;;10.20;7.75;;;30.20;47.00;;;;;;5003929;28;20029;-82
2023/06/18 11:10:41;;;;;;;11.13;6.57;;;30.10;47.10;;;;;;5009903;28;20030;-80
2023/06/18 11:13:09;;;;;;;6.82;6.15;;;30.20;46.90;;;;;;5008302;28;20110;-80
2023/06/18 11:15:38;;;;;;;7.38;6.68;;;30.40;46.10;;;;;;5001757;28;20073;-80
2023/06/18 11:18:04;;;;;;;7.95;6.57;;;30.30;45.60;;;;;;5036307;28;20037;-83
2023/06/18 11:20:34;;;;;;;7.18;6.25;;;30.40;46.00;;;;;;5037865;28;20034;-81
2023/06/18 11:23:00;;;;;;;7.20;6.55;;;30.50;45.20;;;;;;5027403;28;20051;-82
2023/06/18 11:25:28;;;;;;;8.98;5.95;;;30.50;45.00;;;;;;5030752;28;20141;-80
2023/06/18 11:27:55;;;;;;;8.07;6.88;;;30.80;44.90;;;;;;5027799;28;20088;-78
2023/06/18 11:30:23;;;;;;;9.32;6.25;;;30.80;43.90;;;;;;5026660;28;20042;-78
2023/06/18 11:32:49;;;;;;;10.93;6.60;;;30.80;44.70;;;;;;5027877;28;20025;-78
2023/06/18 11:35:14;;;;;;;7.85;6.38;;;30.70;44.50;;;;;;5029037;28;20091;-85
2023/06/18 11:37:44;;;;;;;7.28;6.50;;;30.60;44.10;;;;;;5023455;28;20072;-77
2023/06/18 11:40:11;;;;;;;9.55;6.38;;;30.60;45.20;;;;;;5035514;28;20021;-77
2023/06/18 11:42:46;;;;;;;7.22;6.20;;;30.50;43.40;;;;;;5030582;28;20537;-78
2023/06/18 11:45:12;;;;;;;7.95;6.38;;;30.50;43.70;;;;;;5025263;28;20056;-79
2023/06/18 11:47:45;;;;;;;13.10;5.88;;;30.60;43.70;;;;;;5016244;28;20116;-79
2023/06/18 11:50:12;;;;;;;7.22;6.10;;;30.60;43.40;;;;;;5027363;28;20061;-79
2023/06/18 11:52:41;;;;;;;7.28;5.63;;;30.80;43.20;;;;;;5027662;28;20049;-78
2023/06/18 11:55:07;;;;;;;6.75;5.88;;;31.10;42.70;;;;;;5024195;28;20079;-80
2023/06/18 11:57:33;;;;;;;6.82;5.95;;;31.50;41.80;;;;;;5027228;28;20386;-79
2023/06/18 11:59:59;;;;;;;6.10;5.55;;;31.80;40.90;;;;;;5028666;28;20018;-78
2023/06/18 12:02:28;;;;;;;10.13;5.88;;;31.90;39.90;;;;;;5020260;28;20045;-80
2023/06/18 12:05:03;;;;;;;8.77;6.20;;;32.20;40.50;;;;;;5026801;28;20484;-80
2023/06/18 12:07:32;;;;;;;8.52;5.78;;;32.10;40.50;;;;;;5023424;28;20052;-80
2023/06/18 12:10:05;;;;;;;6.63;6.00;;;32.20;40.30;;;;;;5016147;28;20083;-76
2023/06/18 12:12:45;;;;;;;6.22;5.35;;;32.30;39.40;;;;;;5026481;28;20457;-77
2023/06/18 12:15:47;;;;;;;7.63;6.70;;;32.30;38.20;;;;;;5020906;28;20048;-77
2023/06/18 12:18:27;;;;;;;7.13;5.88;;;32.60;38.80;;;;;;5022324;28;20731;-76
2023/06/18 12:20:54;;;;;;;8.10;5.90;;;32.80;38.30;;;;;;5030185;28;20476;-82
2023/06/18 12:23:19;;;;;;;12.82;6.30;;;32.90;38.80;;;;;;5029070;28;20036;-81
2023/06/18 12:25:45;;;;;;;6.70;6.10;;;33.10;38.70;;;;;;5030262;28;20509;-82
2023/06/18 12:28:11;;;;;;;11.18;6.05;;;33.30;38.70;;;;;;5027359;28;20131;-82
2023/06/18 12:30:42;;;;;;;11.30;6.00;;;33.40;38.10;;;;;;5029923;28;20017;-80
2023/06/18 12:33:10;;;;;;;7.47;6.43;;;33.30;38.10;;;;;;5027518;28;20032;-80
2023/06/18 12:35:37;;;;;;;10.88;5.95;;;33.10;37.80;;;;;;5027263;28;20057;-82
2023/06/18 12:38:10;;;;;;;8.15;6.55;;;33.20;38.50;;;;;;5038171;28;20030;-80
2023/06/18 12:40:55;;;;;;;7.53;6.82;;;33.30;38.40;;;;;;5031608;28;20076;-81